Ventura — ZCDT2 — position and weather

sailwx.info

Track history (hours):
 
Tides and Currents Weather Stations Pressure Air Temp Water Temp Dewpoint Dewpoint Depression Visibility Wind Speed Wind Dir Waves Ship Positions

Ventura

Last reported at 2017-Nov-25 09:28 UTC. Time now 2017-Nov-25 09:45 UTC.
Position N 50°10' W 001°01'.

Length 289 m; draft 8.6 m.

Type: Passenger vessel. MMSI: 310562000.

Date/timePositionNaut miles runAvg speedWind from/ knotsBaromVisibWave heightAir tempDewpointWater temp
2017-Nov-25 09:28N 50°10' W 001°01'6 8.9
2017-Nov-25 08:50N 50°09' W 001°09'3 8.6
2017-Nov-25 08:30N 50°09' W 001°13'4 8.7
2017-Nov-25 08:00N 50°08' W 001°20'4 8.2
2017-Nov-25 07:30N 50°07' W 001°26'4 7.7
2017-Nov-25 07:00N 50°06' W 001°32'4 7.9
2017-Nov-25 06:31N 50°05' W 001°38'4 7.8
2017-Nov-25 06:00N 50°04' W 001°44'4 7.6
2017-Nov-25 05:30N 50°04' W 001°50'4 7.6
2017-Nov-25 05:00N 50°03' W 001°56'4 7.9
2017-Nov-25 04:30N 50°02' W 002°02'4 8.2
2017-Nov-25 04:00N 50°01' W 002°08'4 7.4
2017-Nov-25 03:29N 50°04' W 002°12'4 9.3
2017-Nov-25 03:00N 50°09' W 002°12'5 9.5
2017-Nov-25 02:30N 50°13' W 002°11'5 9.1
2017-Nov-25 02:00N 50°16' W 002°05'4 8.8
2017-Nov-25 01:30N 50°18' W 001°59'4 8.6
2017-Nov-25 01:00N 50°20' W 001°53'5 9.1
2017-Nov-25 00:30N 50°22' W 001°46'4 8.7
2017-Nov-25 00:00N 50°23' W 001°40'4 8.8
2017-Nov-24 23:30N 50°24' W 001°33'4 7.7
2017-Nov-24 23:00N 50°26' W 001°28'4 7.2
2017-Nov-24 22:30N 50°27' W 001°22'4 7.2
2017-Nov-24 22:00N 50°28' W 001°17'4 7.2
2017-Nov-24 21:30N 50°30' W 001°12'4 7.8
2017-Nov-24 21:00N 50°31' W 001°06'4 8.6
2017-Nov-24 20:30N 50°33' W 001°00'5 9.8
2017-Nov-24 20:00N 50°38' W 000°59'5 9.8
2017-Nov-24 19:30N 50°43' W 001°00'815.4
2017-Nov-24 19:00N 50°46' W 001°11'5 9.5
2017-Nov-24 18:31N 50°49' W 001°17'510.4
2017-Nov-24 18:00N 50°52' W 001°23'1 2.3
2017-Nov-24 17:29N 50°53' W 001°24'0 0.0
2017-Nov-24 16:59N 50°53' W 001°24'0 0.0
2017-Nov-24 16:29N 50°53' W 001°24'0 0.0
2017-Nov-24 15:59N 50°53' W 001°24'0 0.0
2017-Nov-24 15:29N 50°53' W 001°24'0 0.0
2017-Nov-24 14:56N 50°53' W 001°24'0 0.0
2017-Nov-24 14:29N 50°53' W 001°24'0 0.0
2017-Nov-24 13:59N 50°53' W 001°24'0 0.0
2017-Nov-24 13:29N 50°53' W 001°24'0 0.0
2017-Nov-24 12:59N 50°53' W 001°24'0 0.0
2017-Nov-24 12:29N 50°53' W 001°24'0 0.0
2017-Nov-24 11:59N 50°53' W 001°24'0 0.0
2017-Nov-24 11:29N 50°53' W 001°24'0 0.0
2017-Nov-24 10:59N 50°53' W 001°24'0 0.0
2017-Nov-24 10:29N 50°53' W 001°24'0 0.0
2017-Nov-24 09:59N 50°53' W 001°24'0 0.0
2017-Nov-24 09:29N 50°53' W 001°24'0 0.0
2017-Nov-24 08:59N 50°53' W 001°24'0 0.0
2017-Nov-24 08:29N 50°53' W 001°24'0 0.0
2017-Nov-24 07:56N 50°53' W 001°24'0 0.0
2017-Nov-24 07:29N 50°53' W 001°24'0 0.0
2017-Nov-24 06:59N 50°53' W 001°24'0 0.0
2017-Nov-24 06:29N 50°53' W 001°24'0 0.4
2017-Nov-24 06:00N 50°53' W 001°24'2 4.4
2017-Nov-24 05:31N 50°52' W 001°22'4 8.8
2017-Nov-24 05:00N 50°48' W 001°18'5 9.9
2017-Nov-24 04:30N 50°46' W 001°11'816.3
2017-Nov-24 04:00N 50°43' W 000°59'510.6
2017-Nov-24 03:30N 50°37' W 000°59'612.6
2017-Nov-24 03:00N 50°32' W 001°04'815.5
2017-Nov-24 02:30N 50°28' W 001°15'816.8
2017-Nov-24 02:00N 50°25' W 001°26'917.6
2017-Nov-24 01:30N 50°20' W 001°38'918.2
2017-Nov-24 01:00N 50°16' W 001°51'918.7
2017-Nov-24 00:30N 50°11' W 002°04'918.0
2017-Nov-23 23:59N 50°04' W 002°13'918.1
2017-Nov-23 23:30N 49°57' W 002°21'1018.8
2017-Nov-23 22:59N 49°54' W 002°36'918.5
2017-Nov-23 22:31N 49°52' W 002°49'1018.0
2017-Nov-23 21:59N 49°47' W 003°01'918.1
2017-Nov-23 21:31N 49°42' W 003°12'6017.8
2017-Nov-23 18:10N 49°05' W 004°24'732.1
2017-Nov-23 17:57N 49°01' W 004°32'511.1
2017-Nov-23 17:30N 48°58' W 004°39'917.8
2017-Nov-23 17:00N 48°53' W 004°49'1019.3
2017-Nov-23 16:30N 48°47' W 005°01'1019.2
2017-Nov-23 16:00N 48°40' W 005°11'1019.0
2017-Nov-23 15:30N 48°33' W 005°21'1019.4
2017-Nov-23 15:00N 48°25' W 005°29'1119.8
2017-Nov-23 14:28N 48°16' W 005°38'919.6
2017-Nov-23 13:59N 48°08' W 005°45'1019.5
2017-Nov-23 13:29N 47°60' W 005°52'8019.3
2017-Nov-23 09:21N 46°50' W 006°50'8419.4
2017-Nov-23 05:00N 45°36' W 007°48'4723.5 270 / 371003.410.8 16.114.215.0
2017-Nov-23 03:00N 44°54' W 008°18'15116.8 260 / 271002.5 5.4 18.214.616.0
2017-Nov-22 18:00N 42°36' W 009°42'7224.0 210 / 311003.110.8 15.011.317.0
2017-Nov-22 15:00N 41°24' W 009°48'33015.7 180 / 311005.4 2.2 18.015.517.2
2017-Nov-21 18:00N 36°30' W 006°36'274 5.9 100 / 41018.610.8 19.516.218.5
2017-Nov-19 19:21N 37°16' W 000°59'1022.0
2017-Nov-19 18:54N 37°23' W 000°50'821.2
2017-Nov-19 18:30N 37°28' W 000°42'1121.6
2017-Nov-19 18:00N 37°36' W 000°33'1121.8
2017-Nov-19 17:30N 37°47' W 000°29'1121.5
2017-Nov-19 17:00N 37°57' W 000°26'1121.4
2017-Nov-19 16:30N 38°08' W 000°24'79 3.5
2017-Nov-18 18:00N 39°24' E 000°00'56 3.7 030 / 81020.310.8 20.011.520.0
2017-Nov-18 03:05N 38°30' E 000°20'221.3
2017-Nov-18 02:58N 38°28' E 000°18'2421.4
2017-Nov-18 01:52N 38°08' E 000°03'920.6
2017-Nov-18 01:26N 38°00' W 000°03'920.1
2017-Nov-18 00:59N 37°53' W 000°10'1020.7
2017-Nov-18 00:30N 37°46' W 000°18'1020.6
2017-Nov-18 00:00N 37°38' W 000°26'1020.5
2017-Nov-17 23:30N 37°30' W 000°35'1020.2
2017-Nov-17 23:00N 37°23' W 000°44'1020.5
2017-Nov-17 22:30N 37°17' W 000°54'21919.8
2017-Nov-17 11:26N 36°01' W 005°10'819.4
2017-Nov-17 11:00N 35°59' W 005°20'6616.5
2017-Nov-17 07:00N 36°00' W 006°42'11420.4 040 / 251018.610.8 15.013.220.0
2017-Nov-17 01:24N 36°31' W 008°58'819.3
2017-Nov-17 01:00N 36°33' W 009°08'918.9
2017-Nov-17 00:30N 36°36' W 009°19'918.3
2017-Nov-17 00:00N 36°42' W 009°26'1019.3
2017-Nov-16 23:30N 36°50' W 009°33'1019.4
2017-Nov-16 23:00N 36°60' W 009°35'1019.5
2017-Nov-16 22:30N 37°09' W 009°35'1019.4
2017-Nov-16 22:00N 37°19' W 009°35'1019.8
2017-Nov-16 21:30N 37°29' W 009°36'1019.7
2017-Nov-16 21:00N 37°39' W 009°34'1019.5
2017-Nov-16 20:30N 37°48' W 009°30'1020.0
2017-Nov-16 20:01N 37°58' W 009°28'1019.8
2017-Nov-16 19:30N 38°08' W 009°27'1019.6
2017-Nov-16 19:01N 38°17' W 009°26'6326.9
2017-Nov-16 19:00N 38°12' W 009°24'1530.9 340 / 151020.010.8 15.514.617.5
2017-Nov-16 18:31N 38°27' W 009°25'917.6
2017-Nov-16 18:00N 38°36' W 009°24'815.2
2017-Nov-16 17:30N 38°41' W 009°17'612.6
2017-Nov-16 17:00N 38°42' W 009°09'2 2.8
2017-Nov-16 16:29N 38°43' W 009°07'0 0.0
2017-Nov-16 15:59N 38°43' W 009°07'0 0.0
2017-Nov-16 15:29N 38°43' W 009°07'0 0.0
2017-Nov-16 14:59N 38°43' W 009°07'0 0.0
2017-Nov-16 14:29N 38°43' W 009°07'0 0.0
2017-Nov-16 13:59N 38°43' W 009°07'0 0.0
2017-Nov-16 13:23N 38°43' W 009°07'0 0.0
2017-Nov-16 12:59N 38°43' W 009°07'0 0.0
2017-Nov-16 12:29N 38°43' W 009°07'0 0.0
2017-Nov-16 11:59N 38°43' W 009°07'0 0.0
2017-Nov-16 11:29N 38°43' W 009°07'0 0.0
2017-Nov-16 10:59N 38°43' W 009°07'0 0.0
2017-Nov-16 10:29N 38°43' W 009°07'0 0.0
2017-Nov-16 09:59N 38°43' W 009°07'0 0.0
2017-Nov-16 09:29N 38°43' W 009°07'0 0.0
2017-Nov-16 08:59N 38°43' W 009°07'0 0.0
2017-Nov-16 08:29N 38°43' W 009°07'0 0.0
2017-Nov-16 07:59N 38°43' W 009°07'0 0.0
2017-Nov-16 07:29N 38°43' W 009°07'3 6.3
2017-Nov-16 07:00N 38°41' W 009°11'510.1
2017-Nov-16 06:30N 38°41' W 009°17'612.7
2017-Nov-16 06:00N 38°37' W 009°23'713.7
2017-Nov-16 05:30N 38°36' W 009°32'713.7
2017-Nov-16 05:01N 38°37' W 009°40'815.4
2017-Nov-16 04:30N 38°45' W 009°43'816.0
2017-Nov-16 04:00N 38°53' W 009°44'815.8
2017-Nov-16 03:30N 39°00' W 009°42'815.3
2017-Nov-16 03:01N 39°08' W 009°43'715.0
2017-Nov-16 02:31N 39°15' W 009°45'714.6
2017-Nov-16 02:00N 39°23' W 009°45'715.1
2017-Nov-16 01:31N 39°30' W 009°46'815.7
2017-Nov-16 01:00N 39°38' W 009°46'815.1
2017-Nov-16 00:30N 39°46' W 009°47'714.6
2017-Nov-16 00:00N 39°53' W 009°47'3614.1
2017-Nov-15 21:25N 40°26' W 010°06'  
Track history (hours):
 
Tides and Currents Weather Stations Pressure Air Temp Water Temp Dewpoint Dewpoint Depression Visibility Wind Speed Wind Dir Waves Ship Positions

Ventura

Last reported at 2017-Nov-25 09:28 UTC. Time now 2017-Nov-25 09:45 UTC.
Position N 50°10' W 001°01'.

Length 289 m; draft 8.6 m.

Type: Passenger vessel. MMSI: 310562000.

Date/timePositionNaut miles runAvg speedWind from/ knotsBaromVisibWave heightAir tempDewpointWater temp
2017-Nov-25 09:28N 50°10' W 001°01'6 8.9
2017-Nov-25 08:50N 50°09' W 001°09'3 8.6
2017-Nov-25 08:30N 50°09' W 001°13'4 8.7
2017-Nov-25 08:00N 50°08' W 001°20'4 8.2
2017-Nov-25 07:30N 50°07' W 001°26'4 7.7
2017-Nov-25 07:00N 50°06' W 001°32'4 7.9
2017-Nov-25 06:31N 50°05' W 001°38'4 7.8
2017-Nov-25 06:00N 50°04' W 001°44'4 7.6
2017-Nov-25 05:30N 50°04' W 001°50'4 7.6
2017-Nov-25 05:00N 50°03' W 001°56'4 7.9
2017-Nov-25 04:30N 50°02' W 002°02'4 8.2
2017-Nov-25 04:00N 50°01' W 002°08'4 7.4
2017-Nov-25 03:29N 50°04' W 002°12'4 9.3
2017-Nov-25 03:00N 50°09' W 002°12'5 9.5
2017-Nov-25 02:30N 50°13' W 002°11'5 9.1
2017-Nov-25 02:00N 50°16' W 002°05'4 8.8
2017-Nov-25 01:30N 50°18' W 001°59'4 8.6
2017-Nov-25 01:00N 50°20' W 001°53'5 9.1
2017-Nov-25 00:30N 50°22' W 001°46'4 8.7
2017-Nov-25 00:00N 50°23' W 001°40'4 8.8
2017-Nov-24 23:30N 50°24' W 001°33'4 7.7
2017-Nov-24 23:00N 50°26' W 001°28'4 7.2
2017-Nov-24 22:30N 50°27' W 001°22'4 7.2
2017-Nov-24 22:00N 50°28' W 001°17'4 7.2
2017-Nov-24 21:30N 50°30' W 001°12'4 7.8
2017-Nov-24 21:00N 50°31' W 001°06'4 8.6
2017-Nov-24 20:30N 50°33' W 001°00'5 9.8
2017-Nov-24 20:00N 50°38' W 000°59'5 9.8
2017-Nov-24 19:30N 50°43' W 001°00'815.4
2017-Nov-24 19:00N 50°46' W 001°11'5 9.5
2017-Nov-24 18:31N 50°49' W 001°17'510.4
2017-Nov-24 18:00N 50°52' W 001°23'1 2.3
2017-Nov-24 17:29N 50°53' W 001°24'0 0.0
2017-Nov-24 16:59N 50°53' W 001°24'0 0.0
2017-Nov-24 16:29N 50°53' W 001°24'0 0.0
2017-Nov-24 15:59N 50°53' W 001°24'0 0.0
2017-Nov-24 15:29N 50°53' W 001°24'0 0.0
2017-Nov-24 14:56N 50°53' W 001°24'0 0.0
2017-Nov-24 14:29N 50°53' W 001°24'0 0.0
2017-Nov-24 13:59N 50°53' W 001°24'0 0.0
2017-Nov-24 13:29N 50°53' W 001°24'0 0.0
2017-Nov-24 12:59N 50°53' W 001°24'0 0.0
2017-Nov-24 12:29N 50°53' W 001°24'0 0.0
2017-Nov-24 11:59N 50°53' W 001°24'0 0.0
2017-Nov-24 11:29N 50°53' W 001°24'0 0.0
2017-Nov-24 10:59N 50°53' W 001°24'0 0.0
2017-Nov-24 10:29N 50°53' W 001°24'0 0.0
2017-Nov-24 09:59N 50°53' W 001°24'0 0.0
2017-Nov-24 09:29N 50°53' W 001°24'0 0.0
2017-Nov-24 08:59N 50°53' W 001°24'0 0.0
2017-Nov-24 08:29N 50°53' W 001°24'0 0.0
2017-Nov-24 07:56N 50°53' W 001°24'0 0.0
2017-Nov-24 07:29N 50°53' W 001°24'0 0.0
2017-Nov-24 06:59N 50°53' W 001°24'0 0.0
2017-Nov-24 06:29N 50°53' W 001°24'0 0.4
2017-Nov-24 06:00N 50°53' W 001°24'2 4.4
2017-Nov-24 05:31N 50°52' W 001°22'4 8.8
2017-Nov-24 05:00N 50°48' W 001°18'5 9.9
2017-Nov-24 04:30N 50°46' W 001°11'816.3
2017-Nov-24 04:00N 50°43' W 000°59'510.6
2017-Nov-24 03:30N 50°37' W 000°59'612.6
2017-Nov-24 03:00N 50°32' W 001°04'815.5
2017-Nov-24 02:30N 50°28' W 001°15'816.8
2017-Nov-24 02:00N 50°25' W 001°26'917.6
2017-Nov-24 01:30N 50°20' W 001°38'918.2
2017-Nov-24 01:00N 50°16' W 001°51'918.7
2017-Nov-24 00:30N 50°11' W 002°04'918.0
2017-Nov-23 23:59N 50°04' W 002°13'918.1
2017-Nov-23 23:30N 49°57' W 002°21'1018.8
2017-Nov-23 22:59N 49°54' W 002°36'918.5
2017-Nov-23 22:31N 49°52' W 002°49'1018.0
2017-Nov-23 21:59N 49°47' W 003°01'918.1
2017-Nov-23 21:31N 49°42' W 003°12'6017.8
2017-Nov-23 18:10N 49°05' W 004°24'732.1
2017-Nov-23 17:57N 49°01' W 004°32'511.1
2017-Nov-23 17:30N 48°58' W 004°39'917.8
2017-Nov-23 17:00N 48°53' W 004°49'1019.3
2017-Nov-23 16:30N 48°47' W 005°01'1019.2
2017-Nov-23 16:00N 48°40' W 005°11'1019.0
2017-Nov-23 15:30N 48°33' W 005°21'1019.4
2017-Nov-23 15:00N 48°25' W 005°29'1119.8
2017-Nov-23 14:28N 48°16' W 005°38'919.6
2017-Nov-23 13:59N 48°08' W 005°45'1019.5
2017-Nov-23 13:29N 47°60' W 005°52'8019.3
2017-Nov-23 09:21N 46°50' W 006°50'8419.4
2017-Nov-23 05:00N 45°36' W 007°48'4723.5 270 / 371003.410.8 16.114.215.0
2017-Nov-23 03:00N 44°54' W 008°18'15116.8 260 / 271002.5 5.4 18.214.616.0
2017-Nov-22 18:00N 42°36' W 009°42'7224.0 210 / 311003.110.8 15.011.317.0
2017-Nov-22 15:00N 41°24' W 009°48'33015.7 180 / 311005.4 2.2 18.015.517.2
2017-Nov-21 18:00N 36°30' W 006°36'274 5.9 100 / 41018.610.8 19.516.218.5
2017-Nov-19 19:21N 37°16' W 000°59'1022.0
2017-Nov-19 18:54N 37°23' W 000°50'821.2
2017-Nov-19 18:30N 37°28' W 000°42'1121.6
2017-Nov-19 18:00N 37°36' W 000°33'1121.8
2017-Nov-19 17:30N 37°47' W 000°29'1121.5
2017-Nov-19 17:00N 37°57' W 000°26'1121.4
2017-Nov-19 16:30N 38°08' W 000°24'79 3.5
2017-Nov-18 18:00N 39°24' E 000°00'56 3.7 030 / 81020.310.8 20.011.520.0
2017-Nov-18 03:05N 38°30' E 000°20'221.3
2017-Nov-18 02:58N 38°28' E 000°18'2421.4
2017-Nov-18 01:52N 38°08' E 000°03'920.6
2017-Nov-18 01:26N 38°00' W 000°03'920.1
2017-Nov-18 00:59N 37°53' W 000°10'1020.7
2017-Nov-18 00:30N 37°46' W 000°18'1020.6
2017-Nov-18 00:00N 37°38' W 000°26'1020.5
2017-Nov-17 23:30N 37°30' W 000°35'1020.2
2017-Nov-17 23:00N 37°23' W 000°44'1020.5
2017-Nov-17 22:30N 37°17' W 000°54'21919.8
2017-Nov-17 11:26N 36°01' W 005°10'819.4
2017-Nov-17 11:00N 35°59' W 005°20'6616.5
2017-Nov-17 07:00N 36°00' W 006°42'11420.4 040 / 251018.610.8 15.013.220.0
2017-Nov-17 01:24N 36°31' W 008°58'819.3
2017-Nov-17 01:00N 36°33' W 009°08'918.9
2017-Nov-17 00:30N 36°36' W 009°19'918.3
2017-Nov-17 00:00N 36°42' W 009°26'1019.3
2017-Nov-16 23:30N 36°50' W 009°33'1019.4
2017-Nov-16 23:00N 36°60' W 009°35'1019.5
2017-Nov-16 22:30N 37°09' W 009°35'1019.4
2017-Nov-16 22:00N 37°19' W 009°35'1019.8
2017-Nov-16 21:30N 37°29' W 009°36'1019.7
2017-Nov-16 21:00N 37°39' W 009°34'1019.5
2017-Nov-16 20:30N 37°48' W 009°30'1020.0
2017-Nov-16 20:01N 37°58' W 009°28'1019.8
2017-Nov-16 19:30N 38°08' W 009°27'1019.6
2017-Nov-16 19:01N 38°17' W 009°26'6326.9
2017-Nov-16 19:00N 38°12' W 009°24'1530.9 340 / 151020.010.8 15.514.617.5
2017-Nov-16 18:31N 38°27' W 009°25'917.6
2017-Nov-16 18:00N 38°36' W 009°24'815.2
2017-Nov-16 17:30N 38°41' W 009°17'612.6
2017-Nov-16 17:00N 38°42' W 009°09'2 2.8
2017-Nov-16 16:29N 38°43' W 009°07'0 0.0
2017-Nov-16 15:59N 38°43' W 009°07'0 0.0
2017-Nov-16 15:29N 38°43' W 009°07'0 0.0
2017-Nov-16 14:59N 38°43' W 009°07'0 0.0
2017-Nov-16 14:29N 38°43' W 009°07'0 0.0
2017-Nov-16 13:59N 38°43' W 009°07'0 0.0
2017-Nov-16 13:23N 38°43' W 009°07'0 0.0
2017-Nov-16 12:59N 38°43' W 009°07'0 0.0
2017-Nov-16 12:29N 38°43' W 009°07'0 0.0
2017-Nov-16 11:59N 38°43' W 009°07'0 0.0
2017-Nov-16 11:29N 38°43' W 009°07'0 0.0
2017-Nov-16 10:59N 38°43' W 009°07'0 0.0
2017-Nov-16 10:29N 38°43' W 009°07'0 0.0
2017-Nov-16 09:59N 38°43' W 009°07'0 0.0
2017-Nov-16 09:29N 38°43' W 009°07'0 0.0
2017-Nov-16 08:59N 38°43' W 009°07'0 0.0
2017-Nov-16 08:29N 38°43' W 009°07'0 0.0
2017-Nov-16 07:59N 38°43' W 009°07'0 0.0
2017-Nov-16 07:29N 38°43' W 009°07'3 6.3
2017-Nov-16 07:00N 38°41' W 009°11'510.1
2017-Nov-16 06:30N 38°41' W 009°17'612.7
2017-Nov-16 06:00N 38°37' W 009°23'713.7
2017-Nov-16 05:30N 38°36' W 009°32'713.7
2017-Nov-16 05:01N 38°37' W 009°40'815.4
2017-Nov-16 04:30N 38°45' W 009°43'816.0
2017-Nov-16 04:00N 38°53' W 009°44'815.8
2017-Nov-16 03:30N 39°00' W 009°42'815.3
2017-Nov-16 03:01N 39°08' W 009°43'715.0
2017-Nov-16 02:31N 39°15' W 009°45'714.6
2017-Nov-16 02:00N 39°23' W 009°45'715.1
2017-Nov-16 01:31N 39°30' W 009°46'815.7
2017-Nov-16 01:00N 39°38' W 009°46'815.1
2017-Nov-16 00:30N 39°46' W 009°47'714.6
2017-Nov-16 00:00N 39°53' W 009°47'3614.1
2017-Nov-15 21:25N 40°26' W 010°06'  

Dump ship's entire track history